Terminal Aerodrome Forecast
Issued by NWS Shreveport, LA

Home | Current Version | Previous Version | Text Only | Print | Product List | Glossary On
Versions: 1 2 3 4 5 6 7 8 9 10 11 12 13 14 15 16 17 18 19 20 21 22
000
FTUS44 KSHV 172341
TAFMLU
TAF
KMLU 172341Z 1800/1824 28009KT P6SM SCT250
     FM180200 VRB03KT P6SM FEW250
     FM180900 VRB04KT P6SM BKN050 BKN200
      TEMPO 1809/1813 00000KT 4SM BR
     FM181800 29006KT P6SM SCT050 BKN150 BKN250=

USA.gov is the U.S. government's official web portal to all federal, state and local government web resources and services.